createdAt,value
2017-07-18T05:32:22.679Z,884
2017-07-18T05:33:24.027Z,892
2017-07-18T05:34:45.459Z,880
2017-07-18T05:35:46.815Z,908
2017-07-18T05:37:08.239Z,916
2017-07-18T05:38:09.590Z,932
2017-07-18T05:39:31.235Z,944
2017-07-18T05:40:32.590Z,956
2017-07-18T05:41:54.019Z,916
2017-07-18T05:42:55.370Z,940
2017-07-18T05:44:16.799Z,980
2017-07-18T05:45:18.163Z,992
2017-07-18T05:46:40.042Z,1004
2017-07-18T05:47:41.392Z,1020
2017-07-18T05:49:02.823Z,1052
2017-07-18T05:50:04.177Z,1072
2017-07-18T05:51:25.611Z,1068
2017-07-18T05:52:26.967Z,1064
2017-07-18T05:53:48.774Z,1056
2017-07-18T05:54:50.127Z,1092
2017-07-18T05:56:11.554Z,944
2017-07-18T05:57:12.902Z,1004
2017-07-18T05:58:34.329Z,920
2017-07-18T05:59:35.678Z,792
2017-07-18T06:00:57.327Z,780
2017-07-18T06:01:58.681Z,816
2017-07-18T06:03:20.111Z,864
2017-07-18T06:04:21.465Z,820
2017-07-18T06:05:42.911Z,792
2017-07-18T06:06:44.256Z,796
2017-07-18T06:08:05.883Z,816
2017-07-18T06:09:07.242Z,832
2017-07-18T06:10:28.673Z,872
2017-07-18T06:11:30.026Z,916
2017-07-18T06:12:31.377Z,1048
2017-07-18T06:13:32.733Z,1252
2017-07-18T06:14:34.089Z,1400
2017-07-18T06:15:35.478Z,1492
2017-07-18T06:16:36.833Z,1656
2017-07-18T06:17:38.189Z,1684
2017-07-18T06:18:39.570Z,1732
2017-07-18T06:19:40.904Z,1772
2017-07-18T06:20:42.261Z,1820
2017-07-18T06:21:43.620Z,1876
2017-07-18T06:22:44.971Z,1916
2017-07-18T06:23:46.323Z,1956
2017-07-18T06:24:47.685Z,1948
2017-07-18T06:25:49.037Z,1948
2017-07-18T06:26:50.391Z,1852
2017-07-18T06:27:51.745Z,1804
2017-07-18T06:28:53.100Z,1796
2017-07-18T06:29:54.453Z,1880
2017-07-18T06:30:55.809Z,1796
2017-07-18T06:31:57.165Z,1848
2017-07-18T06:32:58.520Z,1752
2017-07-18T06:33:59.872Z,1700
2017-07-18T06:35:06.494Z,1420
2017-07-18T06:36:07.805Z,1404
2017-07-18T06:37:10.498Z,1400
2017-07-18T06:38:18.442Z,1412
2017-07-18T06:39:27.068Z,1440
2017-07-18T06:40:28.356Z,1464
2017-07-18T06:41:29.712Z,1504
2017-07-18T06:42:31.068Z,1524
2017-07-18T06:43:32.423Z,1560
2017-07-18T06:44:33.844Z,1636
2017-07-18T06:45:41.085Z,1684
2017-07-18T06:46:42.391Z,1676
2017-07-18T06:47:43.742Z,1884
2017-07-18T06:48:45.100Z,2120
2017-07-18T06:49:46.457Z,2100
2017-07-18T06:50:47.813Z,2068
2017-07-18T06:51:49.985Z,2024
2017-07-18T06:52:51.813Z,1984
2017-07-18T06:53:53.451Z,1908
2017-07-18T06:54:54.805Z,1844
2017-07-18T06:55:56.517Z,1740
2017-07-18T06:56:57.874Z,1692
2017-07-18T06:57:59.229Z,1676
2017-07-18T06:59:00.589Z,1636
2017-07-18T07:00:01.940Z,1560
2017-07-18T07:01:03.312Z,1536
2017-07-18T07:02:04.664Z,1520
2017-07-18T07:03:06.019Z,1500
2017-07-18T07:04:07.374Z,1512
2017-07-18T07:05:08.726Z,1484
2017-07-18T07:06:10.084Z,1480
2017-07-18T07:07:11.439Z,1468
2017-07-18T07:08:12.798Z,1460
2017-07-18T07:09:14.149Z,1468
2017-07-18T07:10:15.510Z,1476
2017-07-18T07:11:16.896Z,1480
2017-07-18T07:12:18.215Z,1496
2017-07-18T07:13:19.572Z,1484
2017-07-18T07:14:20.927Z,1492
2017-07-18T07:15:22.284Z,1488
2017-07-18T07:16:23.641Z,1496
2017-07-18T07:17:24.994Z,1496
2017-07-18T07:18:26.346Z,1488
2017-07-18T07:19:27.700Z,1404
2017-07-18T07:20:29.060Z,1416
2017-07-18T07:21:30.413Z,1472
2017-07-18T07:22:31.771Z,1496
2017-07-18T07:23:33.124Z,1484
2017-07-18T07:24:34.479Z,1544
2017-07-18T07:25:35.833Z,1560
2017-07-18T07:26:37.190Z,1596
2017-07-18T07:27:38.545Z,1664
2017-07-18T07:28:39.901Z,1716
2017-07-18T07:29:41.256Z,1740
2017-07-18T07:30:42.614Z,1760
2017-07-18T07:31:43.966Z,1788
2017-07-18T07:32:45.322Z,1816
2017-07-18T07:33:46.676Z,1848
2017-07-18T07:34:48.035Z,1880
2017-07-18T07:35:49.389Z,1896
2017-07-18T07:36:50.747Z,1892
2017-07-18T07:37:52.100Z,1884
2017-07-18T07:38:53.454Z,1856
2017-07-18T07:39:54.807Z,1832
2017-07-18T07:40:56.163Z,1796
2017-07-18T07:41:57.533Z,1768
2017-07-18T07:42:58.899Z,1744
2017-07-18T07:44:00.264Z,1736
2017-07-18T07:45:01.622Z,1592
2017-07-18T07:46:02.979Z,1636
2017-07-18T07:47:04.352Z,1620
2017-07-18T07:48:05.710Z,1684
2017-07-18T07:49:07.081Z,1748
2017-07-18T07:50:08.439Z,1740
2017-07-18T07:51:09.800Z,1744
2017-07-18T07:52:11.155Z,1768
2017-07-18T07:53:12.511Z,1784
2017-07-18T07:54:13.866Z,1796
2017-07-18T07:55:15.225Z,1816
2017-07-18T07:56:16.585Z,1816
2017-07-18T07:57:17.943Z,1812
2017-07-18T07:58:19.357Z,1876
2017-07-18T07:59:20.804Z,1892
2017-07-18T08:00:22.154Z,1896
2017-07-18T08:01:23.510Z,1896
2017-07-18T08:02:25.467Z,1896
2017-07-18T08:03:26.828Z,1892
2017-07-18T08:04:28.185Z,1872
2017-07-18T08:05:29.542Z,1844
2017-07-18T08:06:30.895Z,1396
2017-07-18T08:07:32.248Z,1380
2017-07-18T08:08:33.605Z,1332
2017-07-18T08:09:34.959Z,1596
2017-07-18T08:10:36.317Z,1236
2017-07-18T08:11:37.674Z,1544
2017-07-18T08:12:39.031Z,1792
2017-07-18T08:13:40.953Z,1740
2017-07-18T08:14:42.309Z,1788
2017-07-18T08:15:43.663Z,1808
2017-07-18T08:16:45.020Z,1832
2017-07-18T08:17:46.375Z,1856
2017-07-18T08:18:47.747Z,1864
2017-07-18T08:19:49.107Z,1876
2017-07-18T08:20:50.463Z,1888
2017-07-18T08:21:51.822Z,1632
2017-07-18T08:22:53.178Z,1752
2017-07-18T08:23:54.534Z,1880
2017-07-18T08:24:55.891Z,1876
2017-07-18T08:25:57.247Z,1856
2017-07-18T08:26:58.605Z,1856
2017-07-18T08:27:59.965Z,1876
2017-07-18T08:29:01.320Z,1668
2017-07-18T08:30:02.686Z,1644
2017-07-18T08:31:04.039Z,1616
2017-07-18T08:32:05.394Z,1728
2017-07-18T08:33:06.760Z,1868
2017-07-18T08:34:08.116Z,1900
2017-07-18T08:35:09.473Z,1884
2017-07-18T08:36:10.833Z,1880
2017-07-18T08:37:12.185Z,1872
2017-07-18T08:38:13.546Z,1884
2017-07-18T08:39:14.903Z,1904
2017-07-18T08:40:16.259Z,1920
2017-07-18T08:41:17.619Z,1928
2017-07-18T08:42:18.972Z,1924
2017-07-18T08:43:20.328Z,1936
2017-07-18T08:44:21.684Z,1936
2017-07-18T08:45:23.039Z,1920
2017-07-18T08:46:24.399Z,1952
2017-07-18T08:47:25.760Z,1920
2017-07-18T08:48:27.119Z,1908
2017-07-18T08:49:28.481Z,1964
2017-07-18T08:50:29.834Z,1884
2017-07-18T08:51:31.187Z,1956
2017-07-18T08:52:32.546Z,1980
2017-07-18T08:53:33.906Z,2000
2017-07-18T08:54:35.267Z,2000
2017-07-18T08:55:36.628Z,2272
2017-07-18T08:56:37.986Z,2052
2017-07-18T08:57:39.352Z,2052
2017-07-18T08:58:40.705Z,2060
2017-07-18T08:59:42.062Z,2080
2017-07-18T09:00:43.425Z,2064
2017-07-18T09:01:44.787Z,2072
2017-07-18T09:02:46.145Z,2084
2017-07-18T09:03:47.503Z,2088
2017-07-18T09:04:48.859Z,2092
2017-07-18T09:05:50.287Z,2124
2017-07-18T09:06:51.649Z,2136
2017-07-18T09:07:53.006Z,2120
2017-07-18T09:08:54.368Z,2136
2017-07-18T09:09:55.726Z,2136
2017-07-18T09:10:57.080Z,2156
2017-07-18T09:11:58.439Z,2144
2017-07-18T09:12:59.796Z,2304
2017-07-18T09:14:01.158Z,2304
2017-07-18T09:15:02.528Z,2280
2017-07-18T09:16:03.887Z,2284
2017-07-18T09:17:05.252Z,4064
2017-07-18T09:18:06.611Z,6956
2017-07-18T09:19:07.967Z,5060
2017-07-18T09:20:09.326Z,2460
2017-07-18T09:21:10.685Z,2408
2017-07-18T09:22:12.044Z,4008
2017-07-18T09:23:13.410Z,5960
2017-07-18T09:24:14.792Z,4188
2017-07-18T09:25:16.129Z,2428
2017-07-18T09:26:17.484Z,2432
2017-07-18T09:27:18.840Z,3708
2017-07-18T09:28:20.198Z,8972
2017-07-18T09:29:21.561Z,9036
2017-07-18T09:30:22.915Z,3380
2017-07-18T09:31:24.275Z,2552
2017-07-18T09:32:25.631Z,2748
2017-07-18T09:33:26.987Z,5848
2017-07-18T09:34:28.345Z,5396
2017-07-18T09:35:29.708Z,2584
2017-07-18T09:36:31.066Z,2476
2017-07-18T09:37:32.425Z,2736
2017-07-18T09:38:33.787Z,7336
2017-07-18T09:39:35.142Z,6324
2017-07-18T09:40:36.500Z,2796
2017-07-18T09:41:37.862Z,2584
2017-07-18T09:42:39.219Z,2780
2017-07-18T09:43:40.580Z,12536
2017-07-18T09:44:41.970Z,23488
2017-07-18T09:45:43.307Z,12964
2017-07-18T09:46:44.675Z,3328
2017-07-18T09:47:46.033Z,2752
2017-07-18T09:48:47.392Z,2712
2017-07-18T09:49:48.747Z,5680
2017-07-18T09:50:50.111Z,16552
2017-07-18T09:51:51.473Z,11908
2017-07-18T09:52:52.834Z,3144
2017-07-18T09:53:54.198Z,3520
2017-07-18T09:54:55.553Z,7616
2017-07-18T09:55:56.907Z,6280
2017-07-18T09:56:58.266Z,2860
2017-07-18T09:57:59.627Z,3356
2017-07-18T09:59:01.885Z,3928
2017-07-18T10:00:03.242Z,3324
2017-07-18T10:01:04.603Z,2820
2017-07-18T10:02:05.962Z,4444
2017-07-18T10:03:07.321Z,8220
2017-07-18T10:04:08.683Z,5720
2017-07-18T10:05:10.044Z,3012
2017-07-18T10:06:11.406Z,5376
2017-07-18T10:07:12.769Z,19200
2017-07-18T10:08:14.128Z,17120
2017-07-18T10:09:15.489Z,3552
2017-07-18T10:10:16.849Z,3072
2017-07-18T10:11:18.209Z,3052
2017-07-18T10:12:19.579Z,4336
2017-07-18T10:13:20.932Z,6168
2017-07-18T10:14:22.292Z,4048
2017-07-18T10:15:23.654Z,3076
2017-07-18T10:16:25.014Z,3112
2017-07-18T10:17:26.374Z,3580
2017-07-18T10:18:27.743Z,5300
2017-07-18T10:19:29.095Z,4224
2017-07-18T10:20:30.458Z,3124
2017-07-18T10:21:31.820Z,3144
2017-07-18T10:22:33.182Z,3212
2017-07-18T10:23:34.582Z,4868
2017-07-18T10:24:35.940Z,20320
2017-07-18T10:25:37.344Z,21216
2017-07-18T10:26:38.706Z,4472
2017-07-18T10:27:40.070Z,6732
2017-07-18T10:28:41.450Z,18848
2017-07-18T10:29:42.808Z,13368
2017-07-18T10:30:44.171Z,3956
2017-07-18T10:31:45.532Z,3748
2017-07-18T10:32:46.890Z,2808
2017-07-18T10:33:48.253Z,3460
2017-07-18T10:34:49.616Z,5600
2017-07-18T10:35:50.979Z,3832
2017-07-18T10:36:52.340Z,11964
2017-07-18T10:37:53.702Z,12708
2017-07-18T10:38:55.062Z,4272
2017-07-18T10:39:56.425Z,16736
2017-07-18T10:40:57.786Z,28992
2017-07-18T10:41:59.147Z,16480
2017-07-18T10:43:00.509Z,9288
2017-07-18T10:44:01.870Z,14020
2017-07-18T10:45:03.229Z,8576
2017-07-18T10:46:04.591Z,6192
2017-07-18T10:47:05.955Z,27168
2017-07-18T10:48:07.319Z,25312
2017-07-18T10:49:08.679Z,11636
2017-07-18T10:50:10.043Z,5628
2017-07-18T10:51:11.404Z,5152
2017-07-18T10:52:12.761Z,8932
2017-07-18T10:53:14.125Z,12116
2017-07-18T10:54:15.487Z,9940
2017-07-18T10:55:16.852Z,11608
2017-07-18T10:56:18.222Z,17664
2017-07-18T10:57:19.578Z,22976
2017-07-18T10:58:20.939Z,8152
2017-07-18T10:59:22.298Z,7408
2017-07-18T11:00:23.660Z,7900
2017-07-18T11:01:25.028Z,8520
2017-07-18T11:02:26.392Z,8992
2017-07-18T11:03:27.755Z,10020
2017-07-18T11:04:29.119Z,24000
2017-07-18T11:05:30.482Z,20000
2017-07-18T11:06:31.845Z,11120
2017-07-18T11:07:33.209Z,13264
2017-07-18T11:08:34.616Z,9820
2017-07-18T11:09:35.978Z,9716
2017-07-18T11:10:37.341Z,8604
2017-07-18T11:11:38.710Z,8572
2017-07-18T11:12:40.071Z,12800
2017-07-18T11:13:41.433Z,10576
2017-07-18T11:14:42.798Z,10492
2017-07-18T11:15:44.164Z,23808
2017-07-18T11:16:45.531Z,20160
2017-07-18T11:17:46.896Z,8392
2017-07-18T11:18:48.262Z,9696
2017-07-18T11:19:49.622Z,8432
2017-07-18T11:20:50.985Z,17232
2017-07-18T11:21:52.350Z,17952
2017-07-18T11:22:53.712Z,8172
2017-07-18T11:23:55.079Z,19136
2017-07-18T11:24:56.441Z,14868
2017-07-18T11:25:57.807Z,5880
2017-07-18T11:26:59.168Z,5852
2017-07-18T11:28:00.530Z,23616
2017-07-18T11:29:01.904Z,55904
2017-07-18T11:30:03.263Z,59008
2017-07-18T11:31:04.628Z,55424
2017-07-18T11:32:05.991Z,52352
2017-07-18T11:33:07.358Z,49888
2017-07-18T11:34:08.728Z,48768
2017-07-18T11:35:10.086Z,49760
2017-07-18T11:36:11.452Z,50944
2017-07-18T11:37:12.818Z,51136
2017-07-18T11:38:14.186Z,43488
2017-07-18T11:39:15.563Z,40544
2017-07-18T11:40:16.924Z,40128
2017-07-18T11:41:18.289Z,37728
2017-07-18T11:42:19.659Z,32832
2017-07-18T11:43:21.027Z,29024
2017-07-18T11:44:22.398Z,36448
2017-07-18T11:45:23.766Z,39552
2017-07-18T11:46:25.137Z,32960
2017-07-18T11:47:26.510Z,29216
2017-07-18T11:48:27.875Z,42784
2017-07-18T11:49:29.243Z,49664
2017-07-18T11:50:30.618Z,47872
2017-07-18T11:51:31.989Z,47936
2017-07-18T11:52:33.355Z,48160
2017-07-18T11:53:35.663Z,49824
2017-07-18T11:54:37.032Z,51808
2017-07-18T11:55:38.401Z,54496
2017-07-18T11:56:39.798Z,55584
2017-07-18T11:57:41.168Z,57248
2017-07-18T11:58:42.545Z,57952
2017-07-18T11:59:44.004Z,59648
2017-07-18T12:00:45.376Z,59744
2017-07-18T12:01:46.959Z,60832
2017-07-18T12:02:48.332Z,61152
2017-07-18T12:03:49.701Z,61280
2017-07-18T12:04:51.072Z,60704
2017-07-18T12:05:52.444Z,60320
2017-07-18T12:06:53.814Z,60000
2017-07-18T12:07:55.186Z,60320
2017-07-18T12:08:57.128Z,60480
2017-07-18T12:09:58.492Z,59968
2017-07-18T12:10:59.866Z,58144
2017-07-18T12:12:01.247Z,57120
2017-07-18T12:13:02.617Z,57024
2017-07-18T12:14:03.987Z,59200
2017-07-18T12:15:05.395Z,61536
2017-07-18T12:16:06.778Z,64160
2017-07-18T12:17:08.150Z,64160
2017-07-18T12:18:09.526Z,63840
2017-07-18T12:19:10.894Z,62048
2017-07-18T12:20:12.267Z,59712
2017-07-18T12:21:13.641Z,56032
2017-07-18T12:22:15.014Z,54336
2017-07-18T12:23:16.401Z,53568
2017-07-18T12:24:17.779Z,54528
2017-07-18T12:25:19.153Z,56448
2017-07-18T12:26:20.525Z,55648
2017-07-18T12:27:21.900Z,55392
2017-07-18T12:28:23.274Z,52768
2017-07-18T12:29:24.648Z,52000
2017-07-18T12:30:26.030Z,55968
2017-07-18T12:31:27.403Z,58624
2017-07-18T12:32:28.776Z,60384
2017-07-18T12:33:30.156Z,60896
2017-07-18T12:34:31.531Z,61184
2017-07-18T12:35:32.906Z,60992
2017-07-18T12:36:34.282Z,59520
2017-07-18T12:37:35.658Z,59360
2017-07-18T12:38:37.042Z,59680
2017-07-18T12:39:38.420Z,59360
2017-07-18T12:40:39.793Z,59136
2017-07-18T12:41:41.193Z,59584
2017-07-18T12:42:42.542Z,56192
2017-07-18T12:43:43.918Z,53536
2017-07-18T12:44:45.294Z,52160
2017-07-18T12:45:46.667Z,53856
2017-07-18T12:46:48.045Z,56768
2017-07-18T12:47:49.421Z,58848
2017-07-18T12:48:50.796Z,57728
2017-07-18T12:49:52.167Z,55008
2017-07-18T12:50:53.555Z,51648
2017-07-18T12:51:54.934Z,48064
2017-07-18T12:52:56.312Z,47392
2017-07-18T12:53:57.687Z,51840
2017-07-18T12:54:59.081Z,57152
2017-07-18T12:56:00.457Z,61408
2017-07-18T12:57:01.860Z,62464
2017-07-18T12:58:03.238Z,61056
2017-07-18T12:59:04.613Z,58752
2017-07-18T13:00:05.992Z,55712
2017-07-18T13:01:07.366Z,55328
2017-07-18T13:02:08.741Z,56704
2017-07-18T13:03:10.118Z,58752
2017-07-18T13:04:11.496Z,59808
2017-07-18T13:05:12.871Z,58880
2017-07-18T13:06:14.251Z,58688
2017-07-18T13:07:15.688Z,59424
2017-07-18T13:08:17.088Z,59456
2017-07-18T13:09:18.465Z,59104
2017-07-18T13:10:19.841Z,58240
2017-07-18T13:11:21.217Z,56640
2017-07-18T13:12:22.596Z,56672
2017-07-18T13:13:23.976Z,59008
2017-07-18T13:14:25.359Z,56832
2017-07-18T13:15:26.732Z,56544
2017-07-18T13:16:28.124Z,57504
2017-07-18T13:17:29.504Z,56576
2017-07-18T13:18:30.880Z,57152
2017-07-18T13:19:32.257Z,58752
2017-07-18T13:20:33.640Z,60832
2017-07-18T13:21:35.016Z,62752
2017-07-18T13:22:36.394Z,62656
2017-07-18T13:23:37.779Z,61664
2017-07-18T13:24:39.154Z,60704
2017-07-18T13:25:40.532Z,58464
2017-07-18T13:26:41.912Z,57024
2017-07-18T13:27:43.288Z,57632
2017-07-18T13:28:44.665Z,58464
2017-07-18T13:29:46.045Z,57920
2017-07-18T13:30:47.423Z,56384
2017-07-18T13:31:48.812Z,54272
2017-07-18T13:32:50.190Z,52800
2017-07-18T13:33:51.565Z,51200
2017-07-18T13:34:52.946Z,54176
2017-07-18T13:35:54.324Z,57248
2017-07-18T13:36:55.697Z,57664
2017-07-18T13:37:57.077Z,57440
2017-07-18T13:38:58.453Z,55744
2017-07-18T13:39:59.834Z,53088
2017-07-18T13:41:01.209Z,51744
2017-07-18T13:42:02.590Z,49600
2017-07-18T13:43:03.966Z,49408
2017-07-18T13:44:05.344Z,49568
2017-07-18T13:45:06.720Z,50144
2017-07-18T13:46:08.094Z,50944
2017-07-18T13:47:10.009Z,51264
2017-07-18T13:48:11.379Z,51232
2017-07-18T13:49:12.758Z,49760
2017-07-18T13:50:14.136Z,50080
2017-07-18T13:51:15.511Z,52864
2017-07-18T13:52:16.884Z,55200
2017-07-18T13:53:18.261Z,57344
2017-07-18T13:54:19.639Z,58880
2017-07-18T13:55:21.018Z,55680
2017-07-18T13:56:22.397Z,57472
2017-07-18T13:57:23.773Z,56704
2017-07-18T13:58:25.155Z,54944
2017-07-18T13:59:26.534Z,55232
2017-07-18T14:00:27.910Z,55552
2017-07-18T14:01:29.290Z,55424
2017-07-18T14:02:30.668Z,54432
2017-07-18T14:03:32.050Z,52608
2017-07-18T14:04:33.433Z,51584
2017-07-18T14:05:34.810Z,52192
2017-07-18T14:06:36.187Z,52288
2017-07-18T14:07:37.563Z,52512
2017-07-18T14:08:38.954Z,51840
2017-07-18T14:09:40.331Z,49952
2017-07-18T14:10:41.717Z,49056
2017-07-18T14:11:43.092Z,48480
2017-07-18T14:12:44.470Z,49408
2017-07-18T14:13:45.848Z,48384
2017-07-18T14:14:47.225Z,49376
2017-07-18T14:15:48.605Z,48576
2017-07-18T14:16:49.998Z,46848
2017-07-18T14:17:51.385Z,31936
2017-07-18T14:18:52.764Z,50912
2017-07-18T14:19:54.136Z,51680
2017-07-18T14:20:55.513Z,50336
2017-07-18T14:21:56.894Z,50336
2017-07-18T14:22:58.274Z,47392
2017-07-18T14:23:59.666Z,46560
2017-07-18T14:25:01.049Z,47168
2017-07-18T14:26:02.421Z,46016
2017-07-18T14:27:03.798Z,46848
2017-07-18T14:28:05.182Z,45248
2017-07-18T14:29:06.599Z,44256
2017-07-18T14:30:07.978Z,44736
2017-07-18T14:31:09.360Z,44096
2017-07-18T14:32:10.739Z,44704
2017-07-18T14:33:12.118Z,46208
2017-07-18T14:34:13.497Z,47936
2017-07-18T14:35:14.888Z,48512
2017-07-18T14:36:16.267Z,49120
2017-07-18T14:37:17.650Z,47776
2017-07-18T14:38:19.026Z,45600
2017-07-18T14:39:20.410Z,41216
2017-07-18T14:40:21.788Z,24544
2017-07-18T14:41:23.163Z,11984
2017-07-18T14:42:24.544Z,19584
2017-07-18T14:43:26.379Z,18176
2017-07-18T14:44:28.602Z,9460
2017-07-18T14:45:32.089Z,7656
2017-07-18T14:46:33.466Z,7696
2017-07-18T14:47:34.838Z,10712
2017-07-18T14:48:36.359Z,10332
2017-07-18T14:49:37.793Z,7300
2017-07-18T14:50:39.161Z,6476
2017-07-18T14:51:40.536Z,6640
2017-07-18T14:52:41.908Z,7576
2017-07-18T14:53:43.281Z,12048
2017-07-18T14:54:44.660Z,18112
2017-07-18T14:55:46.030Z,25408
2017-07-18T14:56:47.402Z,29664
2017-07-18T14:57:48.775Z,26496
2017-07-18T14:58:50.148Z,23072
2017-07-18T14:59:51.682Z,23456
2017-07-18T15:00:53.057Z,25984
2017-07-18T15:01:54.459Z,29600
2017-07-18T15:02:55.849Z,29184
2017-07-18T15:03:57.219Z,32768
2017-07-18T15:04:58.590Z,34080
2017-07-18T15:05:59.963Z,33728
2017-07-18T15:07:01.454Z,32864
2017-07-18T15:08:02.826Z,31776
2017-07-18T15:09:04.198Z,30752
2017-07-18T15:10:05.621Z,31488
2017-07-18T15:11:06.989Z,32544
2017-07-18T15:12:08.363Z,32864
2017-07-18T15:13:09.740Z,30912
2017-07-18T15:14:11.113Z,30688
2017-07-18T15:15:12.487Z,27680
2017-07-18T15:16:13.861Z,27424
2017-07-18T15:17:15.227Z,25728
2017-07-18T15:18:16.599Z,28416
2017-07-18T15:19:17.976Z,28992
2017-07-18T15:20:19.350Z,30176
2017-07-18T15:21:20.725Z,27904
2017-07-18T15:22:22.098Z,27360
2017-07-18T15:23:23.473Z,26624
2017-07-18T15:24:24.844Z,25888
2017-07-18T15:25:26.220Z,28544
2017-07-18T15:26:27.598Z,28672
2017-07-18T15:27:28.969Z,27712
2017-07-18T15:28:30.384Z,27808
2017-07-18T15:29:31.738Z,26912
2017-07-18T15:30:33.114Z,20096
2017-07-18T15:31:34.484Z,11404
2017-07-18T15:32:35.854Z,7324
2017-07-18T15:33:37.227Z,7324
2017-07-18T15:34:38.599Z,4880
2017-07-18T15:35:39.976Z,4296
2017-07-18T15:36:41.347Z,4100
2017-07-18T15:37:42.716Z,4592
2017-07-18T15:38:44.154Z,5908
2017-07-18T15:39:45.529Z,8764
2017-07-18T15:40:46.906Z,4936
2017-07-18T15:41:48.265Z,3256
2017-07-18T15:42:49.688Z,2580
2017-07-18T15:43:51.754Z,2480
2017-07-18T15:44:53.122Z,2420
2017-07-18T15:45:54.490Z,2352
2017-07-18T15:46:55.862Z,2204
2017-07-18T15:47:57.226Z,2084
2017-07-18T15:48:58.594Z,1980
2017-07-18T15:49:59.960Z,1928
2017-07-18T15:51:01.336Z,1860
2017-07-18T15:52:02.694Z,1836
2017-07-18T15:53:04.057Z,1836
2017-07-18T15:54:05.425Z,1864
2017-07-18T15:55:06.859Z,1872
2017-07-18T15:56:10.054Z,1972
2017-07-18T15:57:11.363Z,2036
2017-07-18T15:58:12.976Z,2212
2017-07-18T15:59:15.241Z,2236
2017-07-18T16:00:16.613Z,1920
2017-07-18T16:01:18.191Z,1876
2017-07-18T16:02:19.929Z,2104
2017-07-18T16:03:21.292Z,1880
2017-07-18T16:04:22.654Z,1832
2017-07-18T16:05:24.016Z,1824
2017-07-18T16:06:25.385Z,1816
2017-07-18T16:07:26.747Z,1800
2017-07-18T16:08:28.112Z,1796
2017-07-18T16:09:30.046Z,1772
2017-07-18T16:10:31.414Z,1752
2017-07-18T16:11:32.778Z,1748
2017-07-18T16:12:34.139Z,1732
2017-07-18T16:13:35.500Z,1708
2017-07-18T16:14:36.862Z,1680
2017-07-18T16:15:38.221Z,1664
2017-07-18T16:16:39.581Z,1652
2017-07-18T16:17:40.942Z,1624
2017-07-18T16:18:42.306Z,1624
2017-07-18T16:19:43.668Z,928
2017-07-18T16:39:16.768Z,4
2017-07-18T16:40:18.138Z,4
2017-07-18T16:41:39.580Z,8
2017-07-18T16:42:40.981Z,4
2017-07-18T16:44:11.830Z,8
2017-07-18T16:45:13.206Z,4
2017-07-18T16:45:58.239Z,4
2017-07-18T16:46:19.611Z,4
2017-07-18T16:47:27.938Z,4
2017-07-18T17:18:24.501Z,0
2017-07-18T17:18:48.130Z,4
2017-07-18T17:35:59.950Z,0
2017-07-18T17:38:28.314Z,4
2017-07-18T17:39:29.665Z,4
2017-07-18T17:51:25.426Z,4
2017-07-18T17:52:26.782Z,4
2017-07-18T17:53:48.213Z,0
2017-07-18T17:54:49.567Z,4
2017-07-18T17:56:11.390Z,4
2017-07-18T18:12:47.643Z,0
2017-07-18T18:13:36.533Z,4
2017-07-18T18:19:47.879Z,4
2017-07-18T18:20:49.223Z,4
2017-07-18T18:44:07.616Z,0
2017-07-18T18:45:08.965Z,0
2017-07-18T18:46:09.222Z,0
2017-07-18T18:47:11.760Z,4
2017-07-18T19:00:24.684Z,4
2017-07-18T19:01:22.811Z,0
2017-07-18T19:02:24.410Z,4
2017-07-18T19:04:18.600Z,0
2017-07-18T19:07:27.650Z,324
2017-07-18T19:08:29.211Z,320
2017-07-18T19:09:30.815Z,292
2017-07-18T19:10:32.419Z,284
2017-07-18T19:11:34.024Z,268
2017-07-18T19:12:35.634Z,256
2017-07-18T19:13:37.241Z,236
2017-07-18T19:14:38.849Z,216
2017-07-18T19:15:40.450Z,204
2017-07-18T19:16:42.059Z,188
2017-07-18T19:17:43.670Z,184
2017-07-18T19:18:45.279Z,172
2017-07-18T19:19:46.888Z,168
2017-07-18T19:20:48.499Z,160
2017-07-18T19:21:53.451Z,148
2017-07-18T19:23:02.597Z,144
2017-07-18T19:24:11.483Z,136
2017-07-18T19:25:13.399Z,124
2017-07-18T19:26:15.361Z,120
2017-07-18T19:27:17.122Z,112
2017-07-18T19:28:22.806Z,108
2017-07-18T19:29:24.518Z,104
2017-07-18T19:30:26.119Z,96
2017-07-18T19:31:27.725Z,92
2017-07-18T19:32:29.893Z,88
2017-07-18T19:33:31.493Z,84
2017-07-18T19:34:33.101Z,80
2017-07-18T19:35:34.711Z,72
2017-07-18T19:36:36.318Z,68
2017-07-18T19:37:37.920Z,60
2017-07-18T19:38:39.535Z,56
2017-07-18T19:39:41.230Z,52
2017-07-18T19:40:42.896Z,48
2017-07-18T19:41:48.365Z,44
2017-07-18T19:42:49.969Z,40
2017-07-18T19:43:51.577Z,36
2017-07-18T19:44:53.178Z,32
2017-07-18T19:45:54.783Z,28
2017-07-18T19:46:56.386Z,28
2017-07-18T19:47:57.994Z,24
2017-07-18T19:48:59.605Z,20
2017-07-18T19:50:01.204Z,16
2017-07-18T19:51:02.818Z,16
2017-07-18T19:52:04.418Z,12
2017-07-18T19:53:06.022Z,12
2017-07-18T19:54:07.630Z,12
2017-07-18T19:55:09.545Z,8
2017-07-18T19:56:11.292Z,12
2017-07-18T19:57:12.897Z,8
2017-07-18T19:58:14.506Z,8
2017-07-18T19:59:16.108Z,8
2017-07-18T20:19:35.553Z,700
2017-07-18T20:20:37.749Z,752
2017-07-18T20:22:28.395Z,752
2017-07-18T20:23:29.995Z,720
2017-07-18T20:25:21.843Z,748
2017-07-18T20:26:23.447Z,752
2017-07-18T20:28:14.091Z,736
2017-07-18T20:29:15.696Z,732
2017-07-18T20:31:06.716Z,712
2017-07-18T20:32:08.346Z,744
2017-07-18T20:33:59.002Z,744
2017-07-18T20:35:00.616Z,720
2017-07-18T20:38:07.683Z,0
2017-07-18T20:39:09.410Z,4
2017-07-18T20:41:01.067Z,0
2017-07-18T20:42:02.668Z,0
2017-07-18T20:43:54.722Z,0
2017-07-18T20:44:56.334Z,0
2017-07-18T20:46:48.001Z,0
2017-07-18T20:47:49.606Z,0
2017-07-18T20:49:41.622Z,0
2017-07-18T20:50:43.224Z,0
2017-07-18T20:52:34.886Z,0
2017-07-18T20:53:36.496Z,0
2017-07-18T20:55:28.474Z,0
2017-07-18T20:56:30.076Z,0
2017-07-18T20:58:21.736Z,0
2017-07-18T20:59:23.338Z,0
2017-07-18T21:01:15.335Z,0
2017-07-18T21:02:16.945Z,0
2017-07-18T21:04:09.569Z,0
2017-07-18T21:05:11.175Z,0
2017-07-18T21:07:03.069Z,0
2017-07-18T21:08:05.419Z,0
2017-07-18T21:09:57.074Z,0
2017-07-18T21:10:58.672Z,0
2017-07-18T21:12:50.734Z,0
2017-07-18T21:13:52.340Z,0
2017-07-18T21:15:43.993Z,0
2017-07-18T21:19:32.135Z,0
2017-07-18T21:20:33.738Z,0
2017-07-18T21:22:25.395Z,0
2017-07-18T21:23:26.996Z,0
2017-07-18T21:25:18.982Z,0
2017-07-18T21:26:20.584Z,0
2017-07-18T21:28:12.238Z,0
2017-07-18T21:29:13.836Z,0
2017-07-18T21:31:05.880Z,0
2017-07-18T21:32:07.479Z,0
2017-07-18T21:33:59.128Z,0
2017-07-18T21:35:00.730Z,0
2017-07-18T21:36:52.707Z,0
2017-07-18T21:37:54.307Z,0
2017-07-18T21:39:45.960Z,0
2017-07-18T21:40:47.562Z,0
2017-07-18T21:42:39.658Z,0
2017-07-18T21:43:41.262Z,0
2017-07-18T21:45:32.919Z,0
2017-07-18T21:46:34.518Z,0
2017-07-18T21:48:26.599Z,0
2017-07-18T21:49:28.197Z,0
2017-07-18T21:51:19.848Z,0
2017-07-18T21:52:21.453Z,0
2017-07-18T21:54:13.381Z,0
2017-07-18T21:55:14.989Z,0
2017-07-18T21:57:06.637Z,0
2017-07-18T21:58:08.261Z,0
2017-07-18T22:00:00.219Z,0
2017-07-18T22:01:01.817Z,0
2017-07-18T22:02:53.472Z,0
2017-07-18T22:03:55.074Z,0
2017-07-18T22:05:47.096Z,0
2017-07-18T22:06:48.697Z,0
2017-07-18T22:08:40.349Z,0
2017-07-18T22:09:41.951Z,0
2017-07-18T22:11:34.093Z,0
2017-07-18T22:12:35.694Z,0
2017-07-18T22:14:27.353Z,0
2017-07-18T22:15:28.951Z,0
2017-07-18T22:17:20.991Z,0
2017-07-18T22:18:22.598Z,0
2017-07-18T22:20:14.237Z,0
2017-07-18T22:21:15.840Z,0
2017-07-18T22:23:07.905Z,0
2017-07-18T22:24:09.505Z,0
2017-07-18T22:26:01.159Z,0
2017-07-18T22:27:02.765Z,0
2017-07-18T22:28:54.713Z,0
2017-07-18T22:36:40.266Z,0
2017-07-18T22:37:41.925Z,0
2017-07-18T22:39:33.579Z,0
2017-07-18T22:40:35.176Z,0
2017-07-18T22:42:27.052Z,0
2017-07-18T22:43:28.648Z,0
2017-07-18T22:45:20.295Z,0
2017-07-18T22:46:21.900Z,0